Decoded Metar for YPLM (LEARMONTH in AUSTRALIA) (IATA:LEA) | Meteo·Mobile Aviation Weather
aviador You're here:

YPLM Decoded Metar

LEARMONTH in AUSTRALIA
Report Time2018-09-18 15:30:00
UTC Time2018-09-18 16:00:17
Flight Rules vfr VFR
Wind210° at 10 kt
W.Decomp.*RWY 18: 8.7 kt HW 4.8 kt RCW
W.Rank210° ranks 1
Current wind is below 210° avg. (10.2)
Visibility9999 m
Phenomena:N/A
Clouds:N/A
Expected CloudBase > 9,600 ft AGL from Temp-Dew spread
CeilingNone
Temp17°C (ISA +2)
Dew Point-7°C (19% RH)
AAT10.6°C
QNH1017 hPa
Density Alt180 ft
Elevation20 ft
Report Wrong Elevation
Raw Report
YPLM 181530Z AUTO 21010KT 9999 // NCD 17/M07 Q1017
RF00.0/000.0=

Extra information for YPLM:More info

Metar Taf Metar & Taf Last 4 Metars F.Rules Stats Wind Profile Meteogram Temp Stats Airport Information Weather charts Add Link Nearby VenuesMetar ALERT Operation Metar Decoded Social comments